Terminal Aerodrome Forecast
Issued by NWS Omaha/Valley, NE

Home | Current Version | Previous Version | Text Only | Print | Product List | Glossary Off
Versions: 1 2 3 4 5 6 7 8 9 10 11 12 13 14 15 16 17 18 19 20 21 22 23 24 25 26 27 28 29 30 31 32 33 34 35 36 37 38 39 40 41 42 43 44 45

000
FTUS43 KOAX 281638 AAA
TAFOFK
TAF AMD
KOFK 281638Z 2817/2912 36014KT P6SM SCT007 OVC015
     FM282300 VRB03KT P6SM BKN250
     FM290800 VRB03KT 4SM BR SKC
      TEMPO 2909/2912 1SM BR=

USA.gov is the U.S. government's official web portal to all federal, state and local government web resources and services.